Terminal Aerodrome Forecast
Issued by NWS Albany, NY

Home | Current Version | Previous Version | Text Only | Print | Product List | Glossary On
Versions: 1 2 3 4 5 6 7 8 9 10 11 12 13 14 15 16 17 18 19 20
000
FTUS41 KALY 212346
TAFALB
TAF
KALB 212346Z 2200/2224 00000KT P6SM BKN035
     FM220400 VRB03KT P6SM VCSH BKN025
     FM220900 VRB03KT 5SM -RASN OVC015
     FM221700 VRB03KT 3SM -RA BR OVC010
     FM222200 03002KT 1SM -RA BR OVC007=

USA.gov is the U.S. government's official web portal to all federal, state and local government web resources and services.